sensor_id;sensor_type;location;lat;lon;timestamp;temperature;humidity
65598;SHT31;52267;51.984;20.956;2022-08-30T00:02:17;15.78;78.50
65598;SHT31;52267;51.984;20.956;2022-08-30T00:04:44;15.78;78.33
65598;SHT31;52267;51.984;20.956;2022-08-30T00:07:11;15.78;78.49
65598;SHT31;52267;51.984;20.956;2022-08-30T00:09:38;15.78;78.33
65598;SHT31;52267;51.984;20.956;2022-08-30T00:12:05;15.78;78.33
65598;SHT31;52267;51.984;20.956;2022-08-30T00:14:33;15.77;78.68
65598;SHT31;52267;51.984;20.956;2022-08-30T00:17:00;15.74;78.87
65598;SHT31;52267;51.984;20.956;2022-08-30T00:19:27;15.75;78.88
65598;SHT31;52267;51.984;20.956;2022-08-30T00:21:54;15.74;78.82
65598;SHT31;52267;51.984;20.956;2022-08-30T00:24:21;15.75;78.81
65598;SHT31;52267;51.984;20.956;2022-08-30T00:26:48;15.75;78.89
65598;SHT31;52267;51.984;20.956;2022-08-30T00:29:15;15.74;79.08
65598;SHT31;52267;51.984;20.956;2022-08-30T00:31:42;15.71;79.00
65598;SHT31;52267;51.984;20.956;2022-08-30T00:34:09;15.69;78.96
65598;SHT31;52267;51.984;20.956;2022-08-30T00:36:36;15.67;79.31
65598;SHT31;52267;51.984;20.956;2022-08-30T00:39:03;15.63;79.35
65598;SHT31;52267;51.984;20.956;2022-08-30T00:41:31;15.62;79.15
65598;SHT31;52267;51.984;20.956;2022-08-30T00:43:59;15.60;79.57
65598;SHT31;52267;51.984;20.956;2022-08-30T00:46:26;15.59;79.52
65598;SHT31;52267;51.984;20.956;2022-08-30T00:48:53;15.61;79.53
65598;SHT31;52267;51.984;20.956;2022-08-30T00:51:21;15.57;79.83
65598;SHT31;52267;51.984;20.956;2022-08-30T00:53:52;15.54;79.76
65598;SHT31;52267;51.984;20.956;2022-08-30T00:56:20;15.52;79.80
65598;SHT31;52267;51.984;20.956;2022-08-30T00:58:50;15.54;79.62
65598;SHT31;52267;51.984;20.956;2022-08-30T01:01:21;15.55;79.67
65598;SHT31;52267;51.984;20.956;2022-08-30T01:03:48;15.55;80.03
65598;SHT31;52267;51.984;20.956;2022-08-30T01:06:15;15.56;79.92
65598;SHT31;52267;51.984;20.956;2022-08-30T01:08:44;15.56;80.16
65598;SHT31;52267;51.984;20.956;2022-08-30T01:11:14;15.58;80.27
65598;SHT31;52267;51.984;20.956;2022-08-30T01:13:44;15.57;80.28
65598;SHT31;52267;51.984;20.956;2022-08-30T01:16:12;15.56;80.37
65598;SHT31;52267;51.984;20.956;2022-08-30T01:18:40;15.57;80.44
65598;SHT31;52267;51.984;20.956;2022-08-30T01:21:10;15.57;80.27
65598;SHT31;52267;51.984;20.956;2022-08-30T01:23:41;15.56;80.46
65598;SHT31;52267;51.984;20.956;2022-08-30T01:26:10;15.53;80.41
65598;SHT31;52267;51.984;20.956;2022-08-30T01:28:39;15.51;80.32
65598;SHT31;52267;51.984;20.956;2022-08-30T01:31:07;15.50;80.40
65598;SHT31;52267;51.984;20.956;2022-08-30T01:33:35;15.48;80.40
65598;SHT31;52267;51.984;20.956;2022-08-30T01:36:05;15.40;80.48
65598;SHT31;52267;51.984;20.956;2022-08-30T01:38:47;15.30;80.69
65598;SHT31;52267;51.984;20.956;2022-08-30T01:44:07;15.20;80.84
65598;SHT31;52267;51.984;20.956;2022-08-30T01:46:38;15.16;80.77
65598;SHT31;52267;51.984;20.956;2022-08-30T01:49:12;15.16;80.69
65598;SHT31;52267;51.984;20.956;2022-08-30T01:51:43;15.16;80.61
65598;SHT31;52267;51.984;20.956;2022-08-30T01:54:10;15.10;80.63
65598;SHT31;52267;51.984;20.956;2022-08-30T01:56:37;15.05;80.68
65598;SHT31;52267;51.984;20.956;2022-08-30T01:59:04;15.00;80.69
65598;SHT31;52267;51.984;20.956;2022-08-30T02:01:32;14.96;80.80
65598;SHT31;52267;51.984;20.956;2022-08-30T02:04:02;14.93;80.77
65598;SHT31;52267;51.984;20.956;2022-08-30T02:06:30;14.86;80.85
65598;SHT31;52267;51.984;20.956;2022-08-30T02:08:57;14.84;80.97
65598;SHT31;52267;51.984;20.956;2022-08-30T02:11:25;14.81;80.96
65598;SHT31;52267;51.984;20.956;2022-08-30T02:13:52;14.77;81.07
65598;SHT31;52267;51.984;20.956;2022-08-30T02:16:20;14.76;80.98
65598;SHT31;52267;51.984;20.956;2022-08-30T02:18:49;14.72;80.89
65598;SHT31;52267;51.984;20.956;2022-08-30T02:21:18;14.67;80.92
65598;SHT31;52267;51.984;20.956;2022-08-30T02:23:46;14.63;81.09
65598;SHT31;52267;51.984;20.956;2022-08-30T02:26:13;14.57;81.33
65598;SHT31;52267;51.984;20.956;2022-08-30T02:28:40;14.54;81.33
65598;SHT31;52267;51.984;20.956;2022-08-30T02:31:08;14.51;81.39
65598;SHT31;52267;51.984;20.956;2022-08-30T02:33:35;14.50;81.32
65598;SHT31;52267;51.984;20.956;2022-08-30T02:36:04;14.51;81.10
65598;SHT31;52267;51.984;20.956;2022-08-30T02:38:33;14.51;81.08
65598;SHT31;52267;51.984;20.956;2022-08-30T02:41:01;14.47;81.07
65598;SHT31;52267;51.984;20.956;2022-08-30T02:43:28;14.46;81.13
65598;SHT31;52267;51.984;20.956;2022-08-30T02:45:55;14.42;81.35
65598;SHT31;52267;51.984;20.956;2022-08-30T02:48:23;14.39;81.47
65598;SHT31;52267;51.984;20.956;2022-08-30T02:50:50;14.41;81.21
65598;SHT31;52267;51.984;20.956;2022-08-30T02:53:18;14.41;81.16
65598;SHT31;52267;51.984;20.956;2022-08-30T02:55:47;14.38;81.21
65598;SHT31;52267;51.984;20.956;2022-08-30T02:58:14;14.35;81.45
65598;SHT31;52267;51.984;20.956;2022-08-30T03:00:41;14.33;81.73
65598;SHT31;52267;51.984;20.956;2022-08-30T03:03:08;14.36;81.72
65598;SHT31;52267;51.984;20.956;2022-08-30T03:05:35;14.37;81.66
65598;SHT31;52267;51.984;20.956;2022-08-30T03:08:02;14.41;81.61
65598;SHT31;52267;51.984;20.956;2022-08-30T03:10:29;14.47;81.65
65598;SHT31;52267;51.984;20.956;2022-08-30T03:12:57;14.49;81.69
65598;SHT31;52267;51.984;20.956;2022-08-30T03:15:24;14.55;81.94
65598;SHT31;52267;51.984;20.956;2022-08-30T03:17:52;14.59;82.24
65598;SHT31;52267;51.984;20.956;2022-08-30T03:20:20;14.63;82.50
65598;SHT31;52267;51.984;20.956;2022-08-30T03:22:48;14.67;82.49
65598;SHT31;52267;51.984;20.956;2022-08-30T03:25:15;14.69;82.51
65598;SHT31;52267;51.984;20.956;2022-08-30T03:27:42;14.73;82.87
65598;SHT31;52267;51.984;20.956;2022-08-30T03:30:10;14.75;82.97
65598;SHT31;52267;51.984;20.956;2022-08-30T03:32:38;14.76;83.14
65598;SHT31;52267;51.984;20.956;2022-08-30T03:35:06;14.78;83.16
65598;SHT31;52267;51.984;20.956;2022-08-30T03:37:34;14.79;82.92
65598;SHT31;52267;51.984;20.956;2022-08-30T03:40:02;14.81;82.94
65598;SHT31;52267;51.984;20.956;2022-08-30T03:42:32;14.83;82.98
65598;SHT31;52267;51.984;20.956;2022-08-30T03:44:59;14.82;83.37
65598;SHT31;52267;51.984;20.956;2022-08-30T03:47:29;14.82;83.22
65598;SHT31;52267;51.984;20.956;2022-08-30T03:49:56;14.83;83.13
65598;SHT31;52267;51.984;20.956;2022-08-30T03:52:23;14.85;83.13
65598;SHT31;52267;51.984;20.956;2022-08-30T03:54:50;14.85;83.06
65598;SHT31;52267;51.984;20.956;2022-08-30T03:57:17;14.88;83.27
65598;SHT31;52267;51.984;20.956;2022-08-30T03:59:44;14.89;83.38
65598;SHT31;52267;51.984;20.956;2022-08-30T04:02:11;14.87;83.37
65598;SHT31;52267;51.984;20.956;2022-08-30T04:04:38;14.88;83.31
65598;SHT31;52267;51.984;20.956;2022-08-30T04:07:05;14.86;83.69
65598;SHT31;52267;51.984;20.956;2022-08-30T04:09:31;14.86;83.45
65598;SHT31;52267;51.984;20.956;2022-08-30T04:12:01;14.86;83.23
65598;SHT31;52267;51.984;20.956;2022-08-30T04:14:28;14.88;83.44
65598;SHT31;52267;51.984;20.956;2022-08-30T04:16:55;14.88;83.67
65598;SHT31;52267;51.984;20.956;2022-08-30T04:19:23;14.89;84.01
65598;SHT31;52267;51.984;20.956;2022-08-30T04:21:50;14.89;84.13
65598;SHT31;52267;51.984;20.956;2022-08-30T04:24:17;14.91;83.97
65598;SHT31;52267;51.984;20.956;2022-08-30T04:26:44;14.97;83.63
65598;SHT31;52267;51.984;20.956;2022-08-30T04:29:11;14.98;83.89
65598;SHT31;52267;51.984;20.956;2022-08-30T04:31:41;15.00;84.02
65598;SHT31;52267;51.984;20.956;2022-08-30T04:34:10;15.02;84.04
65598;SHT31;52267;51.984;20.956;2022-08-30T04:36:39;15.05;83.84
65598;SHT31;52267;51.984;20.956;2022-08-30T04:39:08;15.08;83.99
65598;SHT31;52267;51.984;20.956;2022-08-30T04:41:35;15.13;84.08
65598;SHT31;52267;51.984;20.956;2022-08-30T04:44:05;15.16;83.94
65598;SHT31;52267;51.984;20.956;2022-08-30T04:46:33;15.22;84.17
65598;SHT31;52267;51.984;20.956;2022-08-30T04:49:02;15.27;84.07
65598;SHT31;52267;51.984;20.956;2022-08-30T04:51:30;15.32;84.22
65598;SHT31;52267;51.984;20.956;2022-08-30T04:54:00;15.36;84.15
65598;SHT31;52267;51.984;20.956;2022-08-30T04:56:27;15.44;84.23
65598;SHT31;52267;51.984;20.956;2022-08-30T04:58:54;15.50;84.24
65598;SHT31;52267;51.984;20.956;2022-08-30T05:01:22;15.57;84.37
65598;SHT31;52267;51.984;20.956;2022-08-30T05:03:53;15.65;84.42
65598;SHT31;52267;51.984;20.956;2022-08-30T05:06:22;15.74;84.10
65598;SHT31;52267;51.984;20.956;2022-08-30T05:08:53;15.86;84.41
65598;SHT31;52267;51.984;20.956;2022-08-30T05:11:21;15.99;84.61
65598;SHT31;52267;51.984;20.956;2022-08-30T05:13:48;16.10;84.49
65598;SHT31;52267;51.984;20.956;2022-08-30T05:16:15;16.18;84.27
65598;SHT31;52267;51.984;20.956;2022-08-30T05:18:46;16.22;84.30
65598;SHT31;52267;51.984;20.956;2022-08-30T05:21:24;16.26;84.72
65598;SHT31;52267;51.984;20.956;2022-08-30T05:23:54;16.32;84.69
65598;SHT31;52267;51.984;20.956;2022-08-30T05:26:29;16.39;84.36
65598;SHT31;52267;51.984;20.956;2022-08-30T05:28:58;16.43;84.80
65598;SHT31;52267;51.984;20.956;2022-08-30T05:31:29;16.49;84.52
65598;SHT31;52267;51.984;20.956;2022-08-30T05:33:59;16.57;84.47
65598;SHT31;52267;51.984;20.956;2022-08-30T05:36:28;16.64;84.70
65598;SHT31;52267;51.984;20.956;2022-08-30T05:38:57;16.70;84.38
65598;SHT31;52267;51.984;20.956;2022-08-30T05:41:25;16.77;84.47
65598;SHT31;52267;51.984;20.956;2022-08-30T05:43:56;16.82;84.16
65598;SHT31;52267;51.984;20.956;2022-08-30T05:46:26;16.87;84.17
65598;SHT31;52267;51.984;20.956;2022-08-30T05:48:58;16.92;84.10
65598;SHT31;52267;51.984;20.956;2022-08-30T05:51:27;16.97;84.04
65598;SHT31;52267;51.984;20.956;2022-08-30T05:53:57;16.98;84.01
65598;SHT31;52267;51.984;20.956;2022-08-30T05:56:26;16.98;84.02
65598;SHT31;52267;51.984;20.956;2022-08-30T05:58:57;17.01;84.05
65598;SHT31;52267;51.984;20.956;2022-08-30T06:01:29;17.04;83.93
65598;SHT31;52267;51.984;20.956;2022-08-30T06:04:01;17.08;83.82
65598;SHT31;52267;51.984;20.956;2022-08-30T06:06:31;17.13;83.63
65598;SHT31;52267;51.984;20.956;2022-08-30T06:09:02;17.20;83.49
65598;SHT31;52267;51.984;20.956;2022-08-30T06:11:31;17.28;83.42
65598;SHT31;52267;51.984;20.956;2022-08-30T06:13:59;17.33;83.27
65598;SHT31;52267;51.984;20.956;2022-08-30T06:16:27;17.38;83.15
65598;SHT31;52267;51.984;20.956;2022-08-30T06:18:55;17.39;82.96
65598;SHT31;52267;51.984;20.956;2022-08-30T06:21:31;17.42;82.94
65598;SHT31;52267;51.984;20.956;2022-08-30T06:24:00;17.45;82.73
65598;SHT31;52267;51.984;20.956;2022-08-30T06:26:29;17.52;82.68
65598;SHT31;52267;51.984;20.956;2022-08-30T06:28:56;17.57;82.58
65598;SHT31;52267;51.984;20.956;2022-08-30T06:31:24;17.60;82.49
65598;SHT31;52267;51.984;20.956;2022-08-30T06:33:53;17.63;82.52
65598;SHT31;52267;51.984;20.956;2022-08-30T06:36:22;17.64;82.30
65598;SHT31;52267;51.984;20.956;2022-08-30T06:38:52;17.64;82.12
65598;SHT31;52267;51.984;20.956;2022-08-30T06:41:25;17.66;81.97
65598;SHT31;52267;51.984;20.956;2022-08-30T06:43:56;17.67;81.80
65598;SHT31;52267;51.984;20.956;2022-08-30T06:46:31;17.69;81.67
65598;SHT31;52267;51.984;20.956;2022-08-30T06:49:01;17.72;81.56
65598;SHT31;52267;51.984;20.956;2022-08-30T06:51:31;17.78;81.47
65598;SHT31;52267;51.984;20.956;2022-08-30T06:54:02;17.85;81.28
65598;SHT31;52267;51.984;20.956;2022-08-30T06:56:31;17.92;81.18
65598;SHT31;52267;51.984;20.956;2022-08-30T06:58:58;17.97;80.93
65598;SHT31;52267;51.984;20.956;2022-08-30T07:01:27;18.05;80.76
65598;SHT31;52267;51.984;20.956;2022-08-30T07:03:55;18.07;80.63
65598;SHT31;52267;51.984;20.956;2022-08-30T07:06:22;18.09;80.58
65598;SHT31;52267;51.984;20.956;2022-08-30T07:08:51;18.11;80.49
65598;SHT31;52267;51.984;20.956;2022-08-30T07:13:52;18.25;79.91
65598;SHT31;52267;51.984;20.956;2022-08-30T07:16:19;18.26;79.91
65598;SHT31;52267;51.984;20.956;2022-08-30T07:18:46;18.31;79.84
65598;SHT31;52267;51.984;20.956;2022-08-30T07:21:26;18.41;79.69
65598;SHT31;52267;51.984;20.956;2022-08-30T07:24:00;18.51;79.54
65598;SHT31;52267;51.984;20.956;2022-08-30T07:26:32;18.62;79.05
65598;SHT31;52267;51.984;20.956;2022-08-30T07:29:03;18.74;78.55
65598;SHT31;52267;51.984;20.956;2022-08-30T07:31:32;18.81;78.56
65598;SHT31;52267;51.984;20.956;2022-08-30T07:34:02;18.80;77.93
65598;SHT31;52267;51.984;20.956;2022-08-30T07:36:31;18.87;77.95
65598;SHT31;52267;51.984;20.956;2022-08-30T07:38:59;18.93;77.84
65598;SHT31;52267;51.984;20.956;2022-08-30T07:41:28;18.95;77.69
65598;SHT31;52267;51.984;20.956;2022-08-30T07:43:59;18.99;77.60
65598;SHT31;52267;51.984;20.956;2022-08-30T07:46:27;19.03;77.44
65598;SHT31;52267;51.984;20.956;2022-08-30T07:48:54;19.03;76.63
65598;SHT31;52267;51.984;20.956;2022-08-30T07:51:22;19.11;75.99
65598;SHT31;52267;51.984;20.956;2022-08-30T07:53:51;19.23;75.63
65598;SHT31;52267;51.984;20.956;2022-08-30T07:56:19;19.35;74.99
65598;SHT31;52267;51.984;20.956;2022-08-30T07:58:47;19.52;74.59
65598;SHT31;52267;51.984;20.956;2022-08-30T08:01:15;19.76;73.38
65598;SHT31;52267;51.984;20.956;2022-08-30T08:03:44;20.03;73.33
65598;SHT31;52267;51.984;20.956;2022-08-30T08:06:13;20.32;73.04
65598;SHT31;52267;51.984;20.956;2022-08-30T08:08:42;20.43;72.91
65598;SHT31;52267;51.984;20.956;2022-08-30T08:13:45;20.28;71.84
65598;SHT31;52267;51.984;20.956;2022-08-30T08:16:16;20.49;72.08
65598;SHT31;52267;51.984;20.956;2022-08-30T08:18:44;20.75;71.87
65598;SHT31;52267;51.984;20.956;2022-08-30T08:21:11;20.87;71.29
65598;SHT31;52267;51.984;20.956;2022-08-30T08:23:38;20.84;71.16
65598;SHT31;52267;51.984;20.956;2022-08-30T08:26:05;20.82;71.09
65598;SHT31;52267;51.984;20.956;2022-08-30T08:28:32;20.74;70.56
65598;SHT31;52267;51.984;20.956;2022-08-30T08:30:59;20.63;70.47
65598;SHT31;52267;51.984;20.956;2022-08-30T08:33:26;20.52;69.78
65598;SHT31;52267;51.984;20.956;2022-08-30T08:35:53;20.43;69.92
65598;SHT31;52267;51.984;20.956;2022-08-30T08:38:20;20.52;69.58
65598;SHT31;52267;51.984;20.956;2022-08-30T08:50:04;20.89;69.37
65598;SHT31;52267;51.984;20.956;2022-08-30T08:55:53;20.53;68.83
65598;SHT31;52267;51.984;20.956;2022-08-30T08:58:22;20.36;69.18
65598;SHT31;52267;51.984;20.956;2022-08-30T09:00:57;20.27;69.62
65598;SHT31;52267;51.984;20.956;2022-08-30T09:03:26;20.15;69.76
65598;SHT31;52267;51.984;20.956;2022-08-30T09:05:55;20.04;70.01
65598;SHT31;52267;51.984;20.956;2022-08-30T09:08:24;19.95;70.39
65598;SHT31;52267;51.984;20.956;2022-08-30T09:10:53;19.89;70.55
65598;SHT31;52267;51.984;20.956;2022-08-30T09:13:30;19.81;70.82
65598;SHT31;52267;51.984;20.956;2022-08-30T09:15:57;19.76;71.11
65598;SHT31;52267;51.984;20.956;2022-08-30T09:18:42;19.73;71.24
65598;SHT31;52267;51.984;20.956;2022-08-30T09:21:13;19.72;71.34
65598;SHT31;52267;51.984;20.956;2022-08-30T09:23:47;19.73;71.50
65598;SHT31;52267;51.984;20.956;2022-08-30T09:26:26;19.74;71.72
65598;SHT31;52267;51.984;20.956;2022-08-30T09:29:04;19.74;71.80
65598;SHT31;52267;51.984;20.956;2022-08-30T09:31:48;19.75;71.86
65598;SHT31;52267;51.984;20.956;2022-08-30T09:34:20;19.79;71.84
65598;SHT31;52267;51.984;20.956;2022-08-30T09:36:50;19.86;71.89
65598;SHT31;52267;51.984;20.956;2022-08-30T09:41:54;20.10;71.59
65598;SHT31;52267;51.984;20.956;2022-08-30T09:44:40;20.28;71.43
65598;SHT31;52267;51.984;20.956;2022-08-30T09:47:16;20.46;71.25
65598;SHT31;52267;51.984;20.956;2022-08-30T09:50:09;20.68;71.11
65598;SHT31;52267;51.984;20.956;2022-08-30T09:55:43;20.96;70.02
65598;SHT31;52267;51.984;20.956;2022-08-30T09:58:26;21.09;69.52
65598;SHT31;52267;51.984;20.956;2022-08-30T10:01:19;21.03;68.91
65598;SHT31;52267;51.984;20.956;2022-08-30T10:04:13;20.99;68.87
65598;SHT31;52267;51.984;20.956;2022-08-30T10:06:53;20.93;68.92
65598;SHT31;52267;51.984;20.956;2022-08-30T10:12:28;20.79;69.07
65598;SHT31;52267;51.984;20.956;2022-08-30T10:21:39;20.79;68.97
65598;SHT31;52267;51.984;20.956;2022-08-30T10:24:05;20.93;68.86
65598;SHT31;52267;51.984;20.956;2022-08-30T10:26:44;21.03;68.46
65598;SHT31;52267;51.984;20.956;2022-08-30T10:29:40;21.14;68.11
65598;SHT31;52267;51.984;20.956;2022-08-30T10:34:55;21.32;67.99
65598;SHT31;52267;51.984;20.956;2022-08-30T10:37:39;21.39;68.10
65598;SHT31;52267;51.984;20.956;2022-08-30T10:40:32;21.41;67.96
65598;SHT31;52267;51.984;20.956;2022-08-30T10:43:32;21.31;67.93
65598;SHT31;52267;51.984;20.956;2022-08-30T10:48:51;21.31;68.34
65598;SHT31;52267;51.984;20.956;2022-08-30T10:51:23;21.32;68.35
65598;SHT31;52267;51.984;20.956;2022-08-30T10:54:33;21.30;68.39
65598;SHT31;52267;51.984;20.956;2022-08-30T10:57:02;21.26;68.48
65598;SHT31;52267;51.984;20.956;2022-08-30T10:59:29;21.21;68.46
65598;SHT31;52267;51.984;20.956;2022-08-30T11:02:20;21.16;68.52
65598;SHT31;52267;51.984;20.956;2022-08-30T11:05:47;21.11;68.48
65598;SHT31;52267;51.984;20.956;2022-08-30T11:14:58;21.27;68.54
65598;SHT31;52267;51.984;20.956;2022-08-30T11:17:39;21.31;68.42
65598;SHT31;52267;51.984;20.956;2022-08-30T11:20:21;21.38;68.65
65598;SHT31;52267;51.984;20.956;2022-08-30T11:31:07;21.36;68.23
65598;SHT31;52267;51.984;20.956;2022-08-30T11:33:55;21.33;68.44
65598;SHT31;52267;51.984;20.956;2022-08-30T11:38:59;21.22;68.70
65598;SHT31;52267;51.984;20.956;2022-08-30T11:44:12;21.11;68.88
65598;SHT31;52267;51.984;20.956;2022-08-30T11:47:00;21.12;68.91
65598;SHT31;52267;51.984;20.956;2022-08-30T11:50:07;21.17;68.68
65598;SHT31;52267;51.984;20.956;2022-08-30T11:53:28;21.23;68.63
65598;SHT31;52267;51.984;20.956;2022-08-30T12:01:46;21.30;68.34
65598;SHT31;52267;51.984;20.956;2022-08-30T12:14:55;21.45;68.01
65598;SHT31;52267;51.984;20.956;2022-08-30T12:17:24;21.47;67.49
65598;SHT31;52267;51.984;20.956;2022-08-30T12:20:14;21.52;67.63
65598;SHT31;52267;51.984;20.956;2022-08-30T12:22:53;21.57;67.09
65598;SHT31;52267;51.984;20.956;2022-08-30T12:25:30;21.61;66.87
65598;SHT31;52267;51.984;20.956;2022-08-30T12:28:16;21.59;66.48
65598;SHT31;52267;51.984;20.956;2022-08-30T12:30:49;21.64;66.35
65598;SHT31;52267;51.984;20.956;2022-08-30T12:33:28;21.62;66.06
65598;SHT31;52267;51.984;20.956;2022-08-30T12:36:10;21.60;65.64
65598;SHT31;52267;51.984;20.956;2022-08-30T12:41:37;21.56;65.46
65598;SHT31;52267;51.984;20.956;2022-08-30T12:44:05;21.58;65.52
65598;SHT31;52267;51.984;20.956;2022-08-30T12:46:39;21.63;65.59
65598;SHT31;52267;51.984;20.956;2022-08-30T12:49:08;21.65;65.25
65598;SHT31;52267;51.984;20.956;2022-08-30T12:51:38;21.62;64.95
65598;SHT31;52267;51.984;20.956;2022-08-30T12:54:12;21.66;65.13
65598;SHT31;52267;51.984;20.956;2022-08-30T12:56:55;21.70;64.89
65598;SHT31;52267;51.984;20.956;2022-08-30T12:59:38;21.71;64.35
65598;SHT31;52267;51.984;20.956;2022-08-30T13:02:24;21.72;63.61
65598;SHT31;52267;51.984;20.956;2022-08-30T13:05:30;21.78;63.71
65598;SHT31;52267;51.984;20.956;2022-08-30T13:08:58;21.82;63.17
65598;SHT31;52267;51.984;20.956;2022-08-30T13:11:05;21.84;62.63
65598;SHT31;52267;51.984;20.956;2022-08-30T13:13:56;21.84;62.59
65598;SHT31;52267;51.984;20.956;2022-08-30T13:25:32;21.92;62.50
65598;SHT31;52267;51.984;20.956;2022-08-30T13:28:01;21.96;62.36
65598;SHT31;52267;51.984;20.956;2022-08-30T13:30:29;21.93;62.63
65598;SHT31;52267;51.984;20.956;2022-08-30T13:32:57;21.92;62.90
65598;SHT31;52267;51.984;20.956;2022-08-30T13:35:24;21.87;63.01
65598;SHT31;52267;51.984;20.956;2022-08-30T13:37:51;21.81;63.21
65598;SHT31;52267;51.984;20.956;2022-08-30T13:40:19;21.76;63.25
65598;SHT31;52267;51.984;20.956;2022-08-30T13:42:47;21.71;63.28
65598;SHT31;52267;51.984;20.956;2022-08-30T13:45:16;21.67;63.38
65598;SHT31;52267;51.984;20.956;2022-08-30T13:47:45;21.63;63.54
65598;SHT31;52267;51.984;20.956;2022-08-30T13:50:13;21.59;63.59
65598;SHT31;52267;51.984;20.956;2022-08-30T13:52:41;21.53;63.90
65598;SHT31;52267;51.984;20.956;2022-08-30T13:55:08;21.51;63.70
65598;SHT31;52267;51.984;20.956;2022-08-30T13:57:35;21.41;63.09
65598;SHT31;52267;51.984;20.956;2022-08-30T14:00:03;21.34;63.49
65598;SHT31;52267;51.984;20.956;2022-08-30T14:02:40;21.29;63.60
65598;SHT31;52267;51.984;20.956;2022-08-30T14:05:07;21.26;63.67
65598;SHT31;52267;51.984;20.956;2022-08-30T14:07:34;21.21;63.79
65598;SHT31;52267;51.984;20.956;2022-08-30T14:10:01;21.22;64.08
65598;SHT31;52267;51.984;20.956;2022-08-30T14:12:29;21.20;64.02
65598;SHT31;52267;51.984;20.956;2022-08-30T14:14:56;21.20;64.17
65598;SHT31;52267;51.984;20.956;2022-08-30T14:17:23;21.19;64.20
65598;SHT31;52267;51.984;20.956;2022-08-30T14:19:55;21.18;64.44
65598;SHT31;52267;51.984;20.956;2022-08-30T14:22:22;21.19;64.31
65598;SHT31;52267;51.984;20.956;2022-08-30T14:24:48;21.17;64.10
65598;SHT31;52267;51.984;20.956;2022-08-30T14:27:15;21.15;64.03
65598;SHT31;52267;51.984;20.956;2022-08-30T14:29:42;21.10;64.05
65598;SHT31;52267;51.984;20.956;2022-08-30T14:32:09;21.05;64.15
65598;SHT31;52267;51.984;20.956;2022-08-30T14:34:36;21.05;64.24
65598;SHT31;52267;51.984;20.956;2022-08-30T14:37:03;21.02;64.23
65598;SHT31;52267;51.984;20.956;2022-08-30T14:39:31;20.98;64.18
65598;SHT31;52267;51.984;20.956;2022-08-30T14:41:58;20.93;64.31
65598;SHT31;52267;51.984;20.956;2022-08-30T14:44:25;20.90;64.42
65598;SHT31;52267;51.984;20.956;2022-08-30T14:46:53;20.85;64.41
65598;SHT31;52267;51.984;20.956;2022-08-30T14:49:21;20.83;64.46
65598;SHT31;52267;51.984;20.956;2022-08-30T14:51:49;20.80;64.54
65598;SHT31;52267;51.984;20.956;2022-08-30T14:54:18;20.77;64.76
65598;SHT31;52267;51.984;20.956;2022-08-30T14:56:48;20.76;64.75
65598;SHT31;52267;51.984;20.956;2022-08-30T14:59:15;20.74;64.67
65598;SHT31;52267;51.984;20.956;2022-08-30T15:01:43;20.76;64.88
65598;SHT31;52267;51.984;20.956;2022-08-30T15:04:11;20.77;64.94
65598;SHT31;52267;51.984;20.956;2022-08-30T15:06:41;20.77;64.99
65598;SHT31;52267;51.984;20.956;2022-08-30T15:09:11;20.77;65.10
65598;SHT31;52267;51.984;20.956;2022-08-30T15:11:44;20.76;65.21
65598;SHT31;52267;51.984;20.956;2022-08-30T15:14:11;20.75;65.33
65598;SHT31;52267;51.984;20.956;2022-08-30T15:16:38;20.74;65.48
65598;SHT31;52267;51.984;20.956;2022-08-30T15:19:07;20.76;65.56
65598;SHT31;52267;51.984;20.956;2022-08-30T15:21:36;20.79;65.60
65598;SHT31;52267;51.984;20.956;2022-08-30T15:24:12;20.76;65.31
65598;SHT31;52267;51.984;20.956;2022-08-30T15:26:48;20.71;65.15
65598;SHT31;52267;51.984;20.956;2022-08-30T15:29:19;20.70;65.22
65598;SHT31;52267;51.984;20.956;2022-08-30T15:31:46;20.70;65.23
65598;SHT31;52267;51.984;20.956;2022-08-30T15:34:14;20.70;65.27
65598;SHT31;52267;51.984;20.956;2022-08-30T15:36:44;20.70;65.22
65598;SHT31;52267;51.984;20.956;2022-08-30T15:39:12;20.68;65.22
65598;SHT31;52267;51.984;20.956;2022-08-30T15:41:40;20.67;65.23
65598;SHT31;52267;51.984;20.956;2022-08-30T15:44:08;20.64;65.20
65598;SHT31;52267;51.984;20.956;2022-08-30T15:46:37;20.64;65.40
65598;SHT31;52267;51.984;20.956;2022-08-30T15:49:12;20.62;65.36
65598;SHT31;52267;51.984;20.956;2022-08-30T15:51:43;20.58;65.54
65598;SHT31;52267;51.984;20.956;2022-08-30T15:54:14;20.57;65.70
65598;SHT31;52267;51.984;20.956;2022-08-30T15:56:44;20.54;65.88
65598;SHT31;52267;51.984;20.956;2022-08-30T15:59:12;20.51;65.90
65598;SHT31;52267;51.984;20.956;2022-08-30T16:01:43;20.47;66.05
65598;SHT31;52267;51.984;20.956;2022-08-30T16:04:11;20.39;66.28
65598;SHT31;52267;51.984;20.956;2022-08-30T16:06:38;20.35;66.31
65598;SHT31;52267;51.984;20.956;2022-08-30T16:09:06;20.33;66.41
65598;SHT31;52267;51.984;20.956;2022-08-30T16:11:34;20.30;66.60
65598;SHT31;52267;51.984;20.956;2022-08-30T16:14:02;20.26;66.62
65598;SHT31;52267;51.984;20.956;2022-08-30T16:16:30;20.24;66.77
65598;SHT31;52267;51.984;20.956;2022-08-30T16:18:57;20.18;66.87
65598;SHT31;52267;51.984;20.956;2022-08-30T16:21:26;20.17;66.94
65598;SHT31;52267;51.984;20.956;2022-08-30T16:23:56;20.14;67.08
65598;SHT31;52267;51.984;20.956;2022-08-30T16:26:26;20.11;67.13
65598;SHT31;52267;51.984;20.956;2022-08-30T16:28:55;20.08;67.33
65598;SHT31;52267;51.984;20.956;2022-08-30T16:31:23;20.05;67.63
65598;SHT31;52267;51.984;20.956;2022-08-30T16:33:53;20.03;67.74
65598;SHT31;52267;51.984;20.956;2022-08-30T16:36:21;20.00;67.74
65598;SHT31;52267;51.984;20.956;2022-08-30T16:38:50;19.99;67.93
65598;SHT31;52267;51.984;20.956;2022-08-30T16:41:18;19.96;67.99
65598;SHT31;52267;51.984;20.956;2022-08-30T16:43:46;19.92;68.25
65598;SHT31;52267;51.984;20.956;2022-08-30T16:46:16;19.90;68.29
65598;SHT31;52267;51.984;20.956;2022-08-30T16:48:45;19.88;68.38
65598;SHT31;52267;51.984;20.956;2022-08-30T16:51:22;19.85;68.49
65598;SHT31;52267;51.984;20.956;2022-08-30T16:53:52;19.81;68.86
65598;SHT31;52267;51.984;20.956;2022-08-30T16:56:26;19.77;68.77
65598;SHT31;52267;51.984;20.956;2022-08-30T16:58:55;19.76;68.78
65598;SHT31;52267;51.984;20.956;2022-08-30T17:01:23;19.71;68.64
65598;SHT31;52267;51.984;20.956;2022-08-30T17:03:51;19.68;68.56
65598;SHT31;52267;51.984;20.956;2022-08-30T17:06:18;19.66;68.50
65598;SHT31;52267;51.984;20.956;2022-08-30T17:08:45;19.63;68.58